Sponsor www.jackysshop.nl


METAR rapporten vliegvelden

   
EBAW - Antwerp
Gewijzigd: 17-07-2019 22:50
Helder  
Helder  
   Wind: OZO 5.6 km/h
Wind: OZO 5.6 km/h
Temperatuur: 19°C
Dauwpunt: 14°C
Vochtigheid: 73%
Barometer: 1013 hPa
Zicht: meer dan 10 km
Bewolking: Helder
EBAW 172050Z 11003KT CAVOK 19/14 Q1013 NOSIG
EBLG - Li├Ęge
Gewijzigd: 17-07-2019 22:50
Helder  
Helder  
   Wind: Oosten 9.3 km/h
Wind: Oosten 9.3 km/h
Temperatuur: 20°C
Dauwpunt: 11°C
Vochtigheid: 56%
Barometer: 1013 hPa
Zicht: meer dan 10 km
Bewolking: Helder
EBLG 172050Z 09005KT CAVOK 20/11 Q1013 NOSIG
EBCV - Mons/Bergen
Gewijzigd: 17-07-2019 22:55
Grotendeels bewolkt  
Grotendeels bewolkt  
   Wind: ZO 7.4 km/h
Wind: ZO 7.4 km/h
Temperatuur: 19°C
Dauwpunt: 13°C
Vochtigheid: 68%
Barometer: 1013 hPa
Bewolking: Grotendeels bewolkt
Zicht: meer dan 10 km
Bewolking: Grotendeels bewolkt 15000 ft,
Grotendeels bewolkt 18000 ft,
Grotendeels bewolkt 20000 ft
EBCV 172055Z AUTO 13004KT 9999 BKN150/// BKN180/// BKN200/// 19/13 Q1013 BLU
EHBK - Maastricht
Gewijzigd: 17-07-2019 22:55
Gedeeltelijk bewolkt  
Gedeeltelijk bewolkt  
   Wind: OZO 5.6 km/h
Wind: OZO 5.6 km/h
Temperatuur: 18°C
Dauwpunt: 12°C
Vochtigheid: 68%
Barometer: 1013 hPa
Bewolking: Gedeeltelijk bewolkt
Zicht: meer dan 10 km
Bewolking: Gedeeltelijk bewolkt
EHBK 172055Z AUTO 12003KT 9999 NSC 18/12 Q1013 NOSIG
ELLX - Luxemburg
Gewijzigd: 17-07-2019 22:50
Helder  
Helder  
   Wind: NNO 18.5 km/h
Wind: NNO 18.5 km/h
Temperatuur: 20°C
Dauwpunt: 11°C
Vochtigheid: 56%
Barometer: 1014 hPa
Zicht: meer dan 10 km
Bewolking: Helder
ELLX 172050Z 03010KT CAVOK 20/11 Q1014 NOSIG
EBOS - Oostende
Gewijzigd: 17-07-2019 22:50
Helder  
Helder  
   Wind: Westen 14.8 km/h
Wind: Westen 14.8 km/h
Temperatuur: 19°C
Dauwpunt: 16°C
Vochtigheid: 83%
Barometer: 1012 hPa
Zicht: meer dan 10 km
Bewolking: Helder
EBOS 172050Z 26008KT 210V290 CAVOK 19/16 Q1012 NOSIG

Script ontwikkeld door  Saratoga-weather.org Aangepast voor de template door  Weerstation Leuven